createdAt,value
2022-12-12T00:01:37.633Z,10.45
2022-12-12T00:04:05.421Z,12.23
2022-12-12T00:06:32.714Z,12.77
2022-12-12T00:08:59.785Z,12.77
2022-12-12T00:11:27.637Z,12.55
2022-12-12T00:13:55.073Z,12.43
2022-12-12T00:16:23.039Z,11.50
2022-12-12T00:18:50.154Z,10.90
2022-12-12T00:21:23.369Z,11.77
2022-12-12T00:23:51.043Z,11.15
2022-12-12T00:26:38.297Z,11.02
2022-12-12T00:29:05.657Z,11.98
2022-12-12T00:31:32.736Z,11.82
2022-12-12T00:33:59.965Z,12.52
2022-12-12T00:36:30.741Z,11.80
2022-12-12T00:38:58.530Z,10.45
2022-12-12T00:41:25.904Z,11.25
2022-12-12T00:43:52.830Z,11.35
2022-12-12T00:46:22.673Z,12.05
2022-12-12T00:48:50.469Z,11.60
2022-12-12T00:51:19.991Z,12.32
2022-12-12T00:53:47.570Z,12.80
2022-12-12T00:56:16.432Z,11.35
2022-12-12T00:58:43.792Z,11.35
2022-12-12T01:01:15.255Z,11.75
2022-12-12T01:03:43.009Z,13.15
2022-12-12T01:06:11.185Z,12.40
2022-12-12T01:08:38.998Z,13.15
2022-12-12T01:11:08.575Z,13.10
2022-12-12T01:13:36.459Z,12.52
2022-12-12T01:16:05.034Z,12.43
2022-12-12T01:18:32.590Z,12.48
2022-12-12T01:20:59.509Z,12.75
2022-12-12T01:23:28.376Z,11.88
2022-12-12T01:26:06.284Z,12.13
2022-12-12T01:28:34.787Z,12.85
2022-12-12T01:31:02.065Z,11.57
2022-12-12T01:33:29.172Z,11.45
2022-12-12T01:35:57.398Z,12.18
2022-12-12T01:38:27.440Z,12.68
2022-12-12T01:40:54.888Z,11.77
2022-12-12T01:43:23.440Z,11.75
2022-12-12T01:46:00.188Z,12.10
2022-12-12T01:48:37.275Z,12.18
2022-12-12T01:51:12.310Z,11.88
2022-12-12T01:53:39.936Z,11.57
2022-12-12T01:56:12.484Z,11.98
2022-12-12T01:58:45.268Z,11.85
2022-12-12T02:01:14.422Z,11.90
2022-12-12T02:03:42.473Z,12.70
2022-12-12T02:06:15.115Z,12.02
2022-12-12T02:08:43.308Z,12.77
2022-12-12T02:11:10.383Z,10.98
2022-12-12T02:13:37.635Z,11.90
2022-12-12T02:16:49.605Z,12.02
2022-12-12T02:19:38.294Z,12.13
2022-12-12T02:22:47.668Z,12.15
2022-12-12T02:25:41.269Z,12.45
2022-12-12T02:28:38.991Z,12.63
2022-12-12T02:31:23.289Z,11.77
2022-12-12T02:33:56.051Z,12.25
2022-12-12T02:36:43.871Z,13.43
2022-12-12T02:39:20.090Z,12.75
2022-12-12T02:41:52.533Z,13.40
2022-12-12T02:44:57.027Z,12.90
2022-12-12T02:47:32.310Z,11.95
2022-12-12T02:50:11.357Z,13.18
2022-12-12T02:52:38.693Z,13.00
2022-12-12T02:55:07.700Z,13.68
2022-12-12T02:57:36.005Z,13.40
2022-12-12T03:00:14.005Z,13.23
2022-12-12T03:02:49.960Z,13.15
2022-12-12T03:05:51.022Z,12.13
2022-12-12T03:08:44.776Z,12.23
2022-12-12T03:11:15.737Z,12.32
2022-12-12T03:13:52.605Z,12.13
2022-12-12T03:16:29.999Z,12.77
2022-12-12T03:19:15.865Z,12.25
2022-12-12T03:22:13.585Z,13.48
2022-12-12T03:24:45.225Z,13.75
2022-12-12T03:27:27.463Z,12.85
2022-12-12T03:29:59.757Z,13.43
2022-12-12T03:32:48.320Z,12.27
2022-12-12T03:35:26.073Z,11.93
2022-12-12T03:38:03.008Z,13.00
2022-12-12T03:40:47.813Z,12.60
2022-12-12T03:43:25.081Z,12.00
2022-12-12T03:46:29.672Z,12.77
2022-12-12T03:49:17.881Z,13.32
2022-12-12T03:51:50.825Z,14.32
2022-12-12T03:54:26.488Z,12.65
2022-12-12T03:57:02.326Z,12.98
2022-12-12T04:02:21.695Z,14.13
2022-12-12T04:05:00.630Z,15.25
2022-12-12T04:07:44.724Z,13.27
2022-12-12T04:10:30.330Z,13.07
2022-12-12T04:13:24.275Z,13.93
2022-12-12T04:16:16.638Z,13.23
2022-12-12T04:18:57.985Z,14.55
2022-12-12T04:21:49.455Z,12.60
2022-12-12T04:24:20.929Z,13.02
2022-12-12T04:26:56.921Z,13.77
2022-12-12T04:32:17.917Z,12.57
2022-12-12T04:34:47.655Z,13.73
2022-12-12T04:37:19.758Z,12.32
2022-12-12T04:39:49.637Z,13.07
2022-12-12T04:42:21.609Z,13.27
2022-12-12T04:44:52.525Z,14.50
2022-12-12T04:47:21.662Z,13.40
2022-12-12T04:49:52.555Z,12.88
2022-12-12T04:52:22.283Z,14.32
2022-12-12T04:54:58.939Z,12.65
2022-12-12T04:57:33.900Z,13.63
2022-12-12T05:00:01.248Z,13.33
2022-12-12T05:02:50.165Z,13.25
2022-12-12T05:05:25.172Z,13.48
2022-12-12T05:08:06.615Z,13.80
2022-12-12T05:10:34.021Z,13.93
2022-12-12T05:13:01.388Z,13.23
2022-12-12T05:15:29.659Z,12.23
2022-12-12T05:18:05.801Z,13.57
2022-12-12T05:20:32.829Z,12.60
2022-12-12T05:22:59.840Z,12.88
2022-12-12T05:25:27.167Z,11.98
2022-12-12T05:27:54.200Z,11.98
2022-12-12T05:30:21.400Z,12.60
2022-12-12T05:32:48.784Z,13.25
2022-12-12T05:35:16.744Z,12.68
2022-12-12T05:37:49.790Z,12.98
2022-12-12T05:40:19.963Z,12.35
2022-12-12T05:42:48.145Z,12.25
2022-12-12T05:45:15.717Z,12.85
2022-12-12T05:47:42.821Z,12.48
2022-12-12T05:50:10.396Z,12.02
2022-12-12T05:52:37.433Z,12.60
2022-12-12T05:55:05.213Z,12.88
2022-12-12T05:57:32.191Z,15.52
2022-12-12T05:59:59.230Z,15.25
2022-12-12T06:02:26.246Z,14.65
2022-12-12T06:04:53.238Z,13.60
2022-12-12T06:07:20.200Z,13.15
2022-12-12T06:09:47.299Z,13.60
2022-12-12T06:12:14.403Z,15.85
2022-12-12T06:14:41.351Z,19.20
2022-12-12T06:17:08.283Z,22.48
2022-12-12T06:19:35.256Z,21.42
2022-12-12T06:22:02.297Z,18.92
2022-12-12T06:24:29.192Z,18.13
2022-12-12T06:26:56.185Z,17.73
2022-12-12T06:29:23.259Z,17.92
2022-12-12T06:31:50.256Z,18.30
2022-12-12T06:34:17.293Z,16.73
2022-12-12T06:36:44.247Z,17.42
2022-12-12T06:39:11.300Z,15.30
2022-12-12T06:41:39.758Z,15.93
2022-12-12T06:44:07.997Z,15.25
2022-12-12T06:46:35.324Z,15.27
2022-12-12T06:49:06.695Z,15.65
2022-12-12T06:51:36.192Z,15.43
2022-12-12T06:54:03.536Z,15.52
2022-12-12T06:56:31.003Z,16.77
2022-12-12T06:58:59.958Z,14.65
2022-12-12T07:01:27.173Z,14.95
2022-12-12T07:03:54.172Z,15.00
2022-12-12T07:06:23.312Z,14.65
2022-12-12T07:08:51.184Z,14.18
2022-12-12T07:11:21.672Z,15.50
2022-12-12T07:13:48.877Z,15.27
2022-12-12T07:16:16.535Z,15.60
2022-12-12T07:18:43.914Z,14.95
2022-12-12T07:21:14.271Z,14.68
2022-12-12T07:23:41.705Z,13.60
2022-12-12T07:26:17.880Z,14.63
2022-12-12T07:28:45.240Z,14.05
2022-12-12T07:31:15.517Z,14.48
2022-12-12T07:33:44.386Z,12.65
2022-12-12T07:36:14.400Z,14.60
2022-12-12T07:38:41.770Z,14.10
2022-12-12T07:41:11.999Z,14.10
2022-12-12T07:43:43.870Z,14.02
2022-12-12T07:46:15.177Z,13.73
2022-12-12T07:48:42.363Z,14.75
2022-12-12T07:51:09.521Z,15.07
2022-12-12T07:53:36.547Z,14.35
2022-12-12T07:56:08.734Z,15.70
2022-12-12T07:58:36.750Z,14.40
2022-12-12T08:01:22.377Z,14.82
2022-12-12T08:03:50.181Z,14.57
2022-12-12T08:06:18.614Z,13.88
2022-12-12T08:08:47.133Z,14.13
2022-12-12T08:11:18.611Z,15.13
2022-12-12T08:13:45.809Z,15.60
2022-12-12T08:16:21.531Z,13.93
2022-12-12T08:21:24.516Z,13.60
2022-12-12T08:23:55.227Z,15.23
2022-12-12T08:26:22.420Z,15.75
2022-12-12T08:28:49.577Z,14.80
2022-12-12T08:31:17.766Z,15.50
2022-12-12T08:33:45.333Z,15.95
2022-12-12T08:36:20.956Z,15.57
2022-12-12T08:38:48.524Z,15.52
2022-12-12T08:41:15.909Z,15.98
2022-12-12T08:43:44.361Z,14.07
2022-12-12T08:46:18.040Z,15.98
2022-12-12T08:48:46.484Z,14.75
2022-12-12T08:51:14.125Z,15.18
2022-12-12T08:53:43.508Z,15.25
2022-12-12T08:56:10.479Z,14.90
2022-12-12T08:58:37.460Z,15.57
2022-12-12T09:01:10.406Z,15.20
2022-12-12T09:03:37.534Z,15.00
2022-12-12T09:06:06.943Z,15.90
2022-12-12T09:08:34.526Z,15.98
2022-12-12T09:11:01.479Z,14.20
2022-12-12T09:13:28.386Z,14.95
2022-12-12T09:15:55.620Z,15.00
2022-12-12T09:18:23.605Z,15.60
2022-12-12T09:20:51.739Z,15.38
2022-12-12T09:23:19.898Z,16.15
2022-12-12T09:25:47.018Z,17.05
2022-12-12T09:28:16.248Z,15.40
2022-12-12T09:30:45.298Z,16.02
2022-12-12T09:33:12.977Z,16.38
2022-12-12T09:35:40.156Z,16.45
2022-12-12T09:38:12.550Z,24.23
2022-12-12T09:41:00.637Z,15.88
2022-12-12T09:43:33.934Z,17.20
2022-12-12T09:46:05.438Z,15.65
2022-12-12T09:48:40.752Z,16.30
2022-12-12T09:51:08.407Z,15.25
2022-12-12T09:53:35.823Z,16.27
2022-12-12T09:56:17.586Z,15.27
2022-12-12T09:58:57.347Z,15.45
2022-12-12T10:02:02.421Z,15.68
2022-12-12T10:04:47.825Z,16.00
2022-12-12T10:07:34.697Z,15.90
2022-12-12T10:10:29.627Z,16.17
2022-12-12T10:12:59.500Z,14.77
2022-12-12T10:15:49.904Z,14.98
2022-12-12T10:18:40.545Z,13.02
2022-12-12T10:21:26.110Z,12.50
2022-12-12T10:24:16.632Z,12.93
2022-12-12T10:26:43.852Z,11.52
2022-12-12T10:29:14.936Z,12.25
2022-12-12T10:32:14.003Z,13.13
2022-12-12T10:35:14.947Z,14.00
2022-12-12T10:38:06.183Z,14.00
2022-12-12T10:40:57.026Z,13.98
2022-12-12T10:43:36.718Z,13.35
2022-12-12T10:46:40.256Z,12.82
2022-12-12T10:49:19.260Z,12.05
2022-12-12T10:51:48.475Z,11.10
2022-12-12T10:54:25.485Z,12.63
2022-12-12T10:57:20.157Z,13.20
2022-12-12T10:59:58.497Z,12.43
2022-12-12T11:02:40.453Z,11.82
2022-12-12T11:05:07.564Z,12.77
2022-12-12T11:07:43.880Z,12.65
2022-12-12T11:10:34.474Z,12.65
2022-12-12T11:13:09.733Z,12.27
2022-12-12T11:15:45.781Z,10.65
2022-12-12T11:18:21.829Z,11.13
2022-12-12T11:21:06.330Z,12.18
2022-12-12T11:23:36.009Z,11.93
2022-12-12T11:26:16.781Z,11.90
2022-12-12T11:28:51.244Z,11.50
2022-12-12T11:31:23.524Z,11.73
2022-12-12T11:33:55.803Z,11.70
2022-12-12T11:36:30.357Z,13.88
2022-12-12T11:38:59.574Z,10.70
2022-12-12T11:41:26.556Z,13.45
2022-12-12T11:43:59.855Z,13.25
2022-12-12T11:46:31.347Z,12.70
2022-12-12T11:49:01.806Z,12.23
2022-12-12T11:51:37.507Z,12.15
2022-12-12T11:54:29.233Z,12.52
2022-12-12T11:57:22.137Z,11.98
2022-12-12T12:00:03.942Z,12.98
2022-12-12T12:02:58.812Z,13.25
2022-12-12T12:05:53.872Z,12.88
2022-12-12T12:08:35.960Z,13.57
2022-12-12T12:11:31.012Z,14.20
2022-12-12T12:14:31.913Z,13.40
2022-12-12T12:17:02.095Z,13.32
2022-12-12T12:19:56.511Z,12.68
2022-12-12T12:22:51.077Z,12.63
2022-12-12T12:26:09.851Z,11.77
2022-12-12T12:28:55.016Z,13.68
2022-12-12T12:32:02.625Z,13.10
2022-12-12T12:35:07.178Z,13.27
2022-12-12T12:37:52.323Z,13.63
2022-12-12T12:40:44.687Z,13.88
2022-12-12T12:43:50.682Z,14.43
2022-12-12T12:46:40.026Z,13.85
2022-12-12T12:49:25.109Z,14.90
2022-12-12T12:52:07.716Z,14.57
2022-12-12T12:54:39.661Z,14.95
2022-12-12T12:57:36.298Z,13.82
2022-12-12T13:00:16.007Z,13.82
2022-12-12T13:02:45.979Z,15.40
2022-12-12T13:05:20.993Z,15.23
2022-12-12T13:08:00.307Z,14.73
2022-12-12T13:10:29.325Z,13.63
2022-12-12T13:13:11.948Z,13.13
2022-12-12T13:15:52.485Z,14.10
2022-12-12T13:18:19.633Z,13.23
2022-12-12T13:21:01.997Z,14.57
2022-12-12T13:23:34.845Z,15.25
2022-12-12T13:26:13.027Z,15.25
2022-12-12T13:28:51.557Z,16.00
2022-12-12T13:31:58.779Z,15.30
2022-12-12T13:36:54.506Z,14.65
2022-12-12T13:39:27.113Z,14.57
2022-12-12T13:41:58.848Z,15.75
2022-12-12T13:44:38.869Z,15.93
2022-12-12T13:47:26.084Z,16.77
2022-12-12T13:50:17.515Z,15.38
2022-12-12T13:52:45.001Z,16.05
2022-12-12T13:55:12.663Z,17.70
2022-12-12T13:58:05.890Z,15.75
2022-12-12T14:00:39.878Z,15.57
2022-12-12T14:03:09.958Z,17.92
2022-12-12T14:05:44.482Z,15.55
2022-12-12T14:08:11.508Z,14.95
2022-12-12T14:10:50.197Z,15.60
2022-12-12T14:13:21.858Z,14.93
2022-12-12T14:15:57.604Z,15.85
2022-12-12T14:21:12.107Z,15.85
2022-12-12T14:23:45.535Z,16.08
2022-12-12T14:26:39.002Z,17.13
2022-12-12T14:29:17.882Z,17.38
2022-12-12T14:31:56.954Z,16.90
2022-12-12T14:34:41.423Z,16.67
2022-12-12T14:37:51.378Z,18.60
2022-12-12T14:40:38.724Z,17.23
2022-12-12T14:43:19.777Z,17.05
2022-12-12T14:45:49.280Z,17.00
2022-12-12T14:48:23.969Z,17.90
2022-12-12T14:51:12.141Z,17.98
2022-12-12T14:53:39.141Z,17.38
2022-12-12T14:56:28.509Z,17.15
2022-12-12T14:58:55.404Z,17.77
2022-12-12T15:01:39.821Z,18.40
2022-12-12T15:04:13.936Z,17.45
2022-12-12T15:06:45.845Z,18.83
2022-12-12T15:09:32.845Z,17.08
2022-12-12T15:12:12.262Z,18.83
2022-12-12T15:14:41.428Z,17.90
2022-12-12T15:17:20.288Z,18.02
2022-12-12T15:19:50.838Z,17.65
2022-12-12T15:22:30.579Z,19.23
2022-12-12T15:25:00.563Z,20.02
2022-12-12T15:27:47.043Z,18.83
2022-12-12T15:30:39.872Z,19.40
2022-12-12T15:33:15.138Z,17.83
2022-12-12T15:35:50.113Z,19.17
2022-12-12T15:38:17.637Z,19.03
2022-12-12T15:40:56.850Z,17.83
2022-12-12T15:43:27.974Z,18.35
2022-12-12T15:46:14.444Z,20.23
2022-12-12T15:48:46.829Z,19.95
2022-12-12T15:51:19.674Z,19.75
2022-12-12T15:53:51.890Z,20.02
2022-12-12T15:56:21.939Z,20.05
2022-12-12T15:59:10.681Z,19.20
2022-12-12T16:01:38.322Z,20.00
2022-12-12T16:04:08.329Z,21.45
2022-12-12T16:06:46.513Z,19.23
2022-12-12T16:09:24.288Z,19.10
2022-12-12T16:11:51.222Z,18.00
2022-12-12T16:14:42.170Z,19.45
2022-12-12T16:17:24.881Z,18.85
2022-12-12T16:20:00.710Z,19.33
2022-12-12T16:25:12.447Z,21.10
2022-12-12T16:27:39.373Z,20.90
2022-12-12T16:30:06.778Z,20.67
2022-12-12T16:32:33.992Z,19.92
2022-12-12T16:35:00.901Z,21.02
2022-12-12T16:37:27.916Z,24.35
2022-12-12T16:39:54.938Z,21.52
2022-12-12T16:42:24.072Z,21.60
2022-12-12T16:44:50.985Z,22.38
2022-12-12T16:47:23.416Z,21.83
2022-12-12T16:49:51.360Z,20.08
2022-12-12T16:52:20.245Z,20.98
2022-12-12T16:54:53.086Z,20.60
2022-12-12T16:57:22.271Z,22.80
2022-12-12T16:59:49.215Z,22.25
2022-12-12T17:02:21.413Z,21.40
2022-12-12T17:04:50.340Z,21.30
2022-12-12T17:07:17.735Z,22.15
2022-12-12T17:09:44.863Z,21.45
2022-12-12T17:12:13.259Z,21.40
2022-12-12T17:14:40.611Z,23.17
2022-12-12T17:17:07.666Z,21.52
2022-12-12T17:19:34.691Z,21.27
2022-12-12T17:22:01.777Z,21.58
2022-12-12T17:24:29.137Z,22.48
2022-12-12T17:26:56.255Z,22.13
2022-12-12T17:29:23.197Z,23.48
2022-12-12T17:31:50.422Z,23.67
2022-12-12T17:34:17.523Z,23.83
2022-12-12T17:36:44.532Z,24.38
2022-12-12T17:39:11.648Z,24.67
2022-12-12T17:41:38.656Z,24.20
2022-12-12T17:44:05.794Z,23.90
2022-12-12T17:46:32.812Z,23.15
2022-12-12T17:49:01.858Z,24.98
2022-12-12T17:51:29.565Z,26.15
2022-12-12T17:53:58.035Z,24.92
2022-12-12T17:56:25.773Z,24.73
2022-12-12T17:58:54.353Z,23.45
2022-12-12T18:01:25.212Z,24.30
2022-12-12T18:03:52.495Z,23.83
2022-12-12T18:06:21.887Z,24.23
2022-12-12T18:08:49.826Z,23.48
2022-12-12T18:11:24.450Z,24.88
2022-12-12T18:13:53.892Z,23.38
2022-12-12T18:16:23.881Z,23.88
2022-12-12T18:18:52.108Z,22.95
2022-12-12T18:21:59.329Z,23.75
2022-12-12T18:24:09.629Z,24.42
2022-12-12T18:26:36.857Z,24.40
2022-12-12T18:29:05.831Z,24.38
2022-12-12T18:31:34.049Z,24.40
2022-12-12T18:34:01.238Z,25.23
2022-12-12T18:36:30.076Z,25.38
2022-12-12T18:38:59.624Z,26.63
2022-12-12T18:41:28.194Z,26.75
2022-12-12T18:43:55.894Z,25.38
2022-12-12T18:46:26.606Z,27.48
2022-12-12T18:48:53.890Z,28.27
2022-12-12T18:51:23.560Z,26.42
2022-12-12T18:53:51.831Z,26.02
2022-12-12T18:56:21.633Z,27.52
2022-12-12T18:58:48.924Z,27.25
2022-12-12T19:01:17.468Z,26.88
2022-12-12T19:03:46.115Z,26.85
2022-12-12T19:06:15.721Z,27.63
2022-12-12T19:08:43.618Z,25.98
2022-12-12T19:11:11.541Z,27.75
2022-12-12T19:13:38.658Z,26.38
2022-12-12T19:16:10.707Z,27.58
2022-12-12T19:18:38.174Z,26.05
2022-12-12T19:21:11.058Z,25.60
2022-12-12T19:23:39.553Z,22.80
2022-12-12T19:26:08.920Z,24.02
2022-12-12T19:28:36.648Z,22.55
2022-12-12T19:31:14.911Z,23.55
2022-12-12T19:33:43.577Z,21.92
2022-12-12T19:36:17.106Z,23.27
2022-12-12T19:38:45.012Z,22.35
2022-12-12T19:41:14.340Z,23.20
2022-12-12T19:43:42.839Z,21.27
2022-12-12T19:46:13.263Z,21.45
2022-12-12T19:48:40.982Z,21.17
2022-12-12T19:51:16.338Z,20.77
2022-12-12T19:53:45.761Z,19.63
2022-12-12T19:56:15.447Z,21.25
2022-12-12T19:58:43.045Z,20.90
2022-12-12T20:01:14.337Z,21.30
2022-12-12T20:03:41.955Z,18.85
2022-12-12T20:06:10.979Z,18.92
2022-12-12T20:08:38.777Z,18.58
2022-12-12T20:11:11.539Z,19.67
2022-12-12T20:13:39.159Z,18.65
2022-12-12T20:16:15.708Z,20.80
2022-12-12T20:18:43.096Z,19.63
2022-12-12T20:21:24.724Z,20.40
2022-12-12T20:23:57.929Z,19.92
2022-12-12T20:26:28.136Z,20.55
2022-12-12T20:28:57.685Z,19.83
2022-12-12T20:31:30.069Z,20.05
2022-12-12T20:33:58.549Z,22.15
2022-12-12T20:36:28.458Z,21.23
2022-12-12T20:38:57.252Z,20.67
2022-12-12T20:41:30.844Z,22.48
2022-12-12T20:43:59.193Z,20.83
2022-12-12T20:46:29.935Z,21.58
2022-12-12T20:48:58.479Z,22.52
2022-12-12T20:54:22.134Z,21.50
2022-12-12T20:56:49.644Z,22.35
2022-12-12T20:59:16.615Z,22.33
2022-12-12T21:01:43.803Z,21.55
2022-12-12T21:04:11.154Z,21.55
2022-12-12T21:06:40.791Z,23.05
2022-12-12T21:09:10.119Z,22.20
2022-12-12T21:11:38.264Z,21.73
2022-12-12T21:14:06.875Z,22.33
2022-12-12T21:16:36.982Z,21.60
2022-12-12T21:19:11.244Z,20.55
2022-12-12T21:21:39.591Z,20.95
2022-12-12T21:24:06.765Z,19.70
2022-12-12T21:26:34.922Z,20.45
2022-12-12T21:29:03.365Z,20.17
2022-12-12T21:31:36.500Z,21.98
2022-12-12T21:34:04.869Z,38.80
2022-12-12T21:36:32.768Z,28.73
2022-12-12T21:39:01.173Z,21.45
2022-12-12T21:41:28.441Z,20.35
2022-12-12T21:43:56.840Z,20.80
2022-12-12T21:46:25.550Z,20.95
2022-12-12T21:49:12.456Z,19.58
2022-12-12T21:51:40.675Z,20.00
2022-12-12T21:54:09.166Z,20.73
2022-12-12T21:56:36.190Z,20.92
2022-12-12T21:59:03.805Z,22.85
2022-12-12T22:01:32.375Z,21.50
2022-12-12T22:04:00.772Z,21.40
2022-12-12T22:06:30.723Z,21.98
2022-12-12T22:08:59.607Z,22.08
2022-12-12T22:11:40.760Z,22.83
2022-12-12T22:14:16.384Z,24.05
2022-12-12T22:16:43.452Z,22.98
2022-12-12T22:19:15.276Z,22.50
2022-12-12T22:21:45.953Z,22.98
2022-12-12T22:24:13.243Z,22.40
2022-12-12T22:26:43.417Z,21.63
2022-12-12T22:29:13.843Z,22.83
2022-12-12T22:31:42.133Z,23.77
2022-12-12T22:34:15.695Z,24.05
2022-12-12T22:36:43.662Z,23.38
2022-12-12T22:39:15.605Z,22.80
2022-12-12T22:41:42.638Z,25.00
2022-12-12T22:44:14.911Z,25.17
2022-12-12T22:46:44.527Z,24.63
2022-12-12T22:49:13.639Z,24.38
2022-12-12T22:51:41.057Z,24.13
2022-12-12T22:54:08.035Z,24.17
2022-12-12T22:56:37.064Z,25.83
2022-12-12T22:59:05.851Z,22.75
2022-12-12T23:01:33.132Z,23.55
2022-12-12T23:04:00.855Z,23.52
2022-12-12T23:06:33.555Z,23.90
2022-12-12T23:09:07.668Z,25.08
2022-12-12T23:11:35.612Z,23.10
2022-12-12T23:14:05.611Z,23.80
2022-12-12T23:16:35.150Z,21.13
2022-12-12T23:19:04.853Z,22.15
2022-12-12T23:21:32.011Z,22.83
2022-12-12T23:23:58.956Z,23.08
2022-12-12T23:26:29.968Z,22.65
2022-12-12T23:28:58.866Z,24.98
2022-12-12T23:31:32.044Z,23.33
2022-12-12T23:34:02.506Z,23.30
2022-12-12T23:36:29.707Z,23.77
2022-12-12T23:38:58.932Z,22.73
2022-12-12T23:41:26.679Z,23.73
2022-12-12T23:43:54.448Z,21.95
2022-12-12T23:46:28.433Z,21.95
2022-12-12T23:48:58.559Z,21.65
2022-12-12T23:51:26.974Z,22.05
2022-12-12T23:53:58.162Z,22.08
2022-12-12T23:56:26.462Z,22.45
2022-12-12T23:58:57.804Z,25.13
